Memphis, Tennessee
Current Conditions -  °F | °C
As of 6:12 AM on Friday 21 Nov 2014 (Local Time) from KMEM Reporting Station
Light Rain Light Rain  
Wind Chill:   Ceiling: 2900
Heat Index:   Visibility: 7mi
Dew Point:   Wind: 7mph
Humidity: 76%   Direction: 80°E
Pressure: 30.3"   Gusts: NA
Location:  35.15°N, 90.05°W
Report Text: KMEM 211212Z 08006KT 7SM -RA FEW018 BKN029 OVC036 06/02 A3030 RMK AO2 P0000 $
Loading
Personal Weather Stations






























Interactive Weather Map New forecast layout! Learn more

10-Day Weather Forecast

Advertisements
Track Severe Weather on mobile